Yeager Airport
KCRW : now visible

Airfield :











YOU CAN JOIN US ON...

 
LOGIN :

Register | Disclaimer

   EN    FR    IT 

 









Legend :    VFR   Marginal VFR   IFR   Intensive IFR   Very Intensive IFR
Visi :
Ceiling :
>= 8 km
>= 3000ft
5 to 8 km
1000 to 3000 ft
1500m to 5 km
500 to 1000 ft
800 to 1500m
200 to 500 ft
< 800m
< 200 ft
Symbols :   Thunderstorms  Fog  Heavy snow  Heavy precipitations  Wind > 20 kt






- Airport Elevation : 981 ft
- IATA code : CRW


KCRW - Yeager

CURRENT METAR :
  • 080654Z 00000KT 10SM CLR M03/M04 A3029 RMK AO2 SLP265 I1000 T10331044

EXPIRED METARs :
  • 080554Z 00000KT 10SM CLR M03/M04 A3030 RMK AO2 SLP266 I1001 I6001 T10281039 10022 21028 58013
  • 080454Z 02003KT 10SM CLR M02/M04 A3031 RMK AO2 SLP271 I1000 T10221044 400781028

TAF KCRW
Valid from the 08 at 06:00 until the 09 at 06:00 UTC


080528Z 0806/0906 00000KT P6SM SKC
FM081100 15004KT P6SM SCT200
FM081400 17004KT P6SM BKN120
FM090000 15005KT P6SM BKN090
FM090300 VRB03KT P6SM OVC050



MET'MAP, your aeronautical weather chart ! - Copyright ORBIFLY December 2007 - Disclaimer

ORBIFLY MET'MAP TEAM :

Programming & Development : Alexandra Zaïnal
Concept & original design : Baudouin d'Aumeries
Assistance for programming : Marc-Olivier Méhu
Technical & hardware support : Manuel Goepfert

Contact : metmap@orbifly.com




SOURCES & CREDITS :

   NOAA       Earth
Advisory